Pride — ZDFD7 — position and weather

sailwx.info

Track history (hours):
 
Tides and Currents Weather Stations Pressure Air Temp Water Temp Dewpoint Dewpoint Depression Visibility Wind Speed Wind Dir Waves Ship Positions

Pride

Last reported at 2017-Apr-25 21:29 UTC. Time now 2017-Apr-27 18:54 UTC.
Position N 55°49' W 006°60'.

Length 88 m; draft 3.5 m.

Type: Cargo ship. MMSI: 236166000.

Date/timePositionNaut miles runAvg speedWind from/ knotsBaromVisibWave heightAir tempDewpointWater temp
2017-Apr-25 21:29N 55°49' W 006°60'4 6.5
2017-Apr-25 20:57N 55°46' W 006°56'2 5.7
2017-Apr-25 20:30N 55°44' W 006°53'3 5.3
2017-Apr-25 20:00N 55°42' W 006°49'2 4.1
2017-Apr-25 19:30N 55°41' W 006°47'2 3.1
2017-Apr-25 19:00N 55°40' W 006°45'2 3.2
2017-Apr-25 18:30N 55°39' W 006°42'1 2.8
2017-Apr-25 18:00N 55°38' W 006°40'1 2.4
2017-Apr-25 17:30N 55°38' W 006°38'2 3.3
2017-Apr-25 17:00N 55°37' W 006°35'2 3.7
2017-Apr-25 16:30N 55°36' W 006°33'3 5.6
2017-Apr-25 16:00N 55°34' W 006°29'4 7.2
2017-Apr-25 15:30N 55°32' W 006°25'4 8.2
2017-Apr-25 15:00N 55°29' W 006°20'9 8.6
2017-Apr-25 14:00N 55°25' W 006°05'4 8.8
2017-Apr-25 13:30N 55°23' W 005°59'510.1
2017-Apr-25 13:00N 55°19' W 005°54'612.1
2017-Apr-25 12:30N 55°16' W 005°45'21 0.7
2017-Apr-24 05:45N 54°58' W 005°25'2 6.2
2017-Apr-24 05:30N 54°57' W 005°24'3 6.8
2017-Apr-24 05:01N 54°53' W 005°23'4 7.4
2017-Apr-24 04:31N 54°50' W 005°22'4 7.9
2017-Apr-24 04:01N 54°46' W 005°20'4 8.4
2017-Apr-24 03:31N 54°42' W 005°19'4 8.8
2017-Apr-24 03:01N 54°37' W 005°18'5 9.2
2017-Apr-24 02:31N 54°33' W 005°18'5 9.4
2017-Apr-24 02:00N 54°28' W 005°17'5 9.6
2017-Apr-24 01:31N 54°23' W 005°17'5 9.5
2017-Apr-24 01:00N 54°19' W 005°18'5 9.4
2017-Apr-24 00:30N 54°14' W 005°19'5 9.0
2017-Apr-23 23:54N 54°09' W 005°20'177 9.4
2017-Apr-23 05:12N 51°13' W 005°50'3310.4
2017-Apr-23 02:03N 50°40' W 005°50'110.4
2017-Apr-23 01:55N 50°39' W 005°50'1210.5
2017-Apr-23 00:48N 50°27' W 005°52'410.5
2017-Apr-23 00:24N 50°23' W 005°52'410.6
2017-Apr-23 00:00N 50°19' W 005°52'139 9.8
2017-Apr-22 09:53N 48°00' W 005°59'4010.2
2017-Apr-22 05:59N 47°21' W 005°48'13 9.8
2017-Apr-22 04:41N 47°09' W 005°44'2 9.7
2017-Apr-22 04:29N 47°07' W 005°44'5 9.7
2017-Apr-22 04:00N 47°03' W 005°42'5 9.8
2017-Apr-22 03:30N 46°58' W 005°41'5 9.8
2017-Apr-22 03:00N 46°53' W 005°39'5 9.8
2017-Apr-22 02:31N 46°48' W 005°38'5 9.3
2017-Apr-22 02:00N 46°44' W 005°37'5 9.4
2017-Apr-22 01:30N 46°39' W 005°35'5 9.5
2017-Apr-22 01:00N 46°34' W 005°34'5 9.6
2017-Apr-22 00:27N 46°29' W 005°33'168 8.1
2017-Apr-21 03:48N 43°42' W 005°09'1 4.5
2017-Apr-21 03:30N 43°42' W 005°11'2 4.4
2017-Apr-21 02:57N 43°42' W 005°14'2 4.6
2017-Apr-21 02:25N 43°42' W 005°18'2 4.6
2017-Apr-21 02:00N 43°42' W 005°20'3 4.4
2017-Apr-21 01:23N 43°42' W 005°24'2 4.2
2017-Apr-21 01:00N 43°42' W 005°26'2 4.3
2017-Apr-21 00:30N 43°42' W 005°29'2 4.5
2017-Apr-20 23:58N 43°42' W 005°33'  
Track history (hours):
 
Tides and Currents Weather Stations Pressure Air Temp Water Temp Dewpoint Dewpoint Depression Visibility Wind Speed Wind Dir Waves Ship Positions

Pride

Last reported at 2017-Apr-25 21:29 UTC. Time now 2017-Apr-27 18:54 UTC.
Position N 55°49' W 006°60'.

Length 88 m; draft 3.5 m.

Type: Cargo ship. MMSI: 236166000.

Date/timePositionNaut miles runAvg speedWind from/ knotsBaromVisibWave heightAir tempDewpointWater temp
2017-Apr-25 21:29N 55°49' W 006°60'4 6.5
2017-Apr-25 20:57N 55°46' W 006°56'2 5.7
2017-Apr-25 20:30N 55°44' W 006°53'3 5.3
2017-Apr-25 20:00N 55°42' W 006°49'2 4.1
2017-Apr-25 19:30N 55°41' W 006°47'2 3.1
2017-Apr-25 19:00N 55°40' W 006°45'2 3.2
2017-Apr-25 18:30N 55°39' W 006°42'1 2.8
2017-Apr-25 18:00N 55°38' W 006°40'1 2.4
2017-Apr-25 17:30N 55°38' W 006°38'2 3.3
2017-Apr-25 17:00N 55°37' W 006°35'2 3.7
2017-Apr-25 16:30N 55°36' W 006°33'3 5.6
2017-Apr-25 16:00N 55°34' W 006°29'4 7.2
2017-Apr-25 15:30N 55°32' W 006°25'4 8.2
2017-Apr-25 15:00N 55°29' W 006°20'9 8.6
2017-Apr-25 14:00N 55°25' W 006°05'4 8.8
2017-Apr-25 13:30N 55°23' W 005°59'510.1
2017-Apr-25 13:00N 55°19' W 005°54'612.1
2017-Apr-25 12:30N 55°16' W 005°45'21 0.7
2017-Apr-24 05:45N 54°58' W 005°25'2 6.2
2017-Apr-24 05:30N 54°57' W 005°24'3 6.8
2017-Apr-24 05:01N 54°53' W 005°23'4 7.4
2017-Apr-24 04:31N 54°50' W 005°22'4 7.9
2017-Apr-24 04:01N 54°46' W 005°20'4 8.4
2017-Apr-24 03:31N 54°42' W 005°19'4 8.8
2017-Apr-24 03:01N 54°37' W 005°18'5 9.2
2017-Apr-24 02:31N 54°33' W 005°18'5 9.4
2017-Apr-24 02:00N 54°28' W 005°17'5 9.6
2017-Apr-24 01:31N 54°23' W 005°17'5 9.5
2017-Apr-24 01:00N 54°19' W 005°18'5 9.4
2017-Apr-24 00:30N 54°14' W 005°19'5 9.0
2017-Apr-23 23:54N 54°09' W 005°20'177 9.4
2017-Apr-23 05:12N 51°13' W 005°50'3310.4
2017-Apr-23 02:03N 50°40' W 005°50'110.4
2017-Apr-23 01:55N 50°39' W 005°50'1210.5
2017-Apr-23 00:48N 50°27' W 005°52'410.5
2017-Apr-23 00:24N 50°23' W 005°52'410.6
2017-Apr-23 00:00N 50°19' W 005°52'139 9.8
2017-Apr-22 09:53N 48°00' W 005°59'4010.2
2017-Apr-22 05:59N 47°21' W 005°48'13 9.8
2017-Apr-22 04:41N 47°09' W 005°44'2 9.7
2017-Apr-22 04:29N 47°07' W 005°44'5 9.7
2017-Apr-22 04:00N 47°03' W 005°42'5 9.8
2017-Apr-22 03:30N 46°58' W 005°41'5 9.8
2017-Apr-22 03:00N 46°53' W 005°39'5 9.8
2017-Apr-22 02:31N 46°48' W 005°38'5 9.3
2017-Apr-22 02:00N 46°44' W 005°37'5 9.4
2017-Apr-22 01:30N 46°39' W 005°35'5 9.5
2017-Apr-22 01:00N 46°34' W 005°34'5 9.6
2017-Apr-22 00:27N 46°29' W 005°33'168 8.1
2017-Apr-21 03:48N 43°42' W 005°09'1 4.5
2017-Apr-21 03:30N 43°42' W 005°11'2 4.4
2017-Apr-21 02:57N 43°42' W 005°14'2 4.6
2017-Apr-21 02:25N 43°42' W 005°18'2 4.6
2017-Apr-21 02:00N 43°42' W 005°20'3 4.4
2017-Apr-21 01:23N 43°42' W 005°24'2 4.2
2017-Apr-21 01:00N 43°42' W 005°26'2 4.3
2017-Apr-21 00:30N 43°42' W 005°29'2 4.5
2017-Apr-20 23:58N 43°42' W 005°33'  

Dump ship's entire track history